sensor_id;sensor_type;location;lat;lon;timestamp;temperature;humidity
53294;DHT22;39181;53.440;5.644;2022-12-07T00:01:07;5.90;99.90
53294;DHT22;39181;53.440;5.644;2022-12-07T00:03:33;5.70;99.90
53294;DHT22;39181;53.440;5.644;2022-12-07T00:06:00;5.60;99.90
53294;DHT22;39181;53.440;5.644;2022-12-07T00:08:26;5.60;99.90
53294;DHT22;39181;53.440;5.644;2022-12-07T00:10:52;5.60;99.90
53294;DHT22;39181;53.440;5.644;2022-12-07T00:13:17;5.60;99.90
53294;DHT22;39181;53.440;5.644;2022-12-07T00:15:43;5.60;99.90
53294;DHT22;39181;53.440;5.644;2022-12-07T00:18:08;5.50;99.90
53294;DHT22;39181;53.440;5.644;2022-12-07T00:20:34;5.50;99.90
53294;DHT22;39181;53.440;5.644;2022-12-07T00:23:00;5.60;99.90
53294;DHT22;39181;53.440;5.644;2022-12-07T00:25:25;5.50;99.90
53294;DHT22;39181;53.440;5.644;2022-12-07T00:27:53;5.50;99.90
53294;DHT22;39181;53.440;5.644;2022-12-07T00:30:22;5.50;99.90
53294;DHT22;39181;53.440;5.644;2022-12-07T00:32:47;5.30;99.90
53294;DHT22;39181;53.440;5.644;2022-12-07T00:35:13;5.40;99.90
53294;DHT22;39181;53.440;5.644;2022-12-07T00:37:39;5.30;99.90
53294;DHT22;39181;53.440;5.644;2022-12-07T00:40:05;5.30;99.90
53294;DHT22;39181;53.440;5.644;2022-12-07T00:42:31;5.30;99.90
53294;DHT22;39181;53.440;5.644;2022-12-07T00:44:56;5.30;99.90
53294;DHT22;39181;53.440;5.644;2022-12-07T00:47:22;5.40;99.90
53294;DHT22;39181;53.440;5.644;2022-12-07T00:49:47;5.50;99.90
53294;DHT22;39181;53.440;5.644;2022-12-07T00:52:13;5.40;99.90
53294;DHT22;39181;53.440;5.644;2022-12-07T00:54:39;5.40;99.90
53294;DHT22;39181;53.440;5.644;2022-12-07T00:57:05;5.30;99.90
53294;DHT22;39181;53.440;5.644;2022-12-07T00:59:31;5.20;99.90
53294;DHT22;39181;53.440;5.644;2022-12-07T01:01:56;5.10;99.90
53294;DHT22;39181;53.440;5.644;2022-12-07T01:04:22;5.00;99.90
53294;DHT22;39181;53.440;5.644;2022-12-07T01:06:47;5.00;99.90
53294;DHT22;39181;53.440;5.644;2022-12-07T01:09:13;5.20;99.90
53294;DHT22;39181;53.440;5.644;2022-12-07T01:11:38;5.30;99.90
53294;DHT22;39181;53.440;5.644;2022-12-07T01:14:04;5.40;99.90
53294;DHT22;39181;53.440;5.644;2022-12-07T01:16:31;5.40;99.90
53294;DHT22;39181;53.440;5.644;2022-12-07T01:18:59;5.50;99.90
53294;DHT22;39181;53.440;5.644;2022-12-07T01:21:27;5.50;99.90
53294;DHT22;39181;53.440;5.644;2022-12-07T01:23:53;5.50;99.90
53294;DHT22;39181;53.440;5.644;2022-12-07T01:26:22;5.50;99.90
53294;DHT22;39181;53.440;5.644;2022-12-07T01:28:48;5.50;99.90
53294;DHT22;39181;53.440;5.644;2022-12-07T01:31:17;5.40;99.90
53294;DHT22;39181;53.440;5.644;2022-12-07T01:33:45;5.50;99.90
53294;DHT22;39181;53.440;5.644;2022-12-07T01:36:15;5.50;99.90
53294;DHT22;39181;53.440;5.644;2022-12-07T01:38:41;5.50;99.90
53294;DHT22;39181;53.440;5.644;2022-12-07T01:41:08;5.50;99.90
53294;DHT22;39181;53.440;5.644;2022-12-07T01:43:34;5.40;99.90
53294;DHT22;39181;53.440;5.644;2022-12-07T01:46:00;5.40;99.90
53294;DHT22;39181;53.440;5.644;2022-12-07T01:48:38;5.40;99.90
53294;DHT22;39181;53.440;5.644;2022-12-07T01:51:08;5.30;99.90
53294;DHT22;39181;53.440;5.644;2022-12-07T01:53:40;5.30;99.90
53294;DHT22;39181;53.440;5.644;2022-12-07T01:56:07;5.50;99.90
53294;DHT22;39181;53.440;5.644;2022-12-07T01:58:34;5.60;99.90
53294;DHT22;39181;53.440;5.644;2022-12-07T02:01:00;5.70;99.90
53294;DHT22;39181;53.440;5.644;2022-12-07T02:03:34;5.70;99.90
53294;DHT22;39181;53.440;5.644;2022-12-07T02:06:01;5.70;99.90
53294;DHT22;39181;53.440;5.644;2022-12-07T02:08:27;5.70;99.90
53294;DHT22;39181;53.440;5.644;2022-12-07T02:10:53;5.50;99.90
53294;DHT22;39181;53.440;5.644;2022-12-07T02:13:26;5.50;99.90
53294;DHT22;39181;53.440;5.644;2022-12-07T02:27:38;5.40;99.90
53294;DHT22;39181;53.440;5.644;2022-12-07T02:30:10;5.40;99.90
53294;DHT22;39181;53.440;5.644;2022-12-07T02:32:44;5.40;99.90
53294;DHT22;39181;53.440;5.644;2022-12-07T02:35:22;5.40;99.90
53294;DHT22;39181;53.440;5.644;2022-12-07T02:40:35;5.50;99.90
53294;DHT22;39181;53.440;5.644;2022-12-07T02:43:27;5.60;99.90
53294;DHT22;39181;53.440;5.644;2022-12-07T02:46:03;5.70;99.90
53294;DHT22;39181;53.440;5.644;2022-12-07T02:48:31;5.70;99.90
53294;DHT22;39181;53.440;5.644;2022-12-07T02:50:58;5.60;99.90
53294;DHT22;39181;53.440;5.644;2022-12-07T02:53:31;5.60;99.90
53294;DHT22;39181;53.440;5.644;2022-12-07T02:55:59;5.60;99.90
53294;DHT22;39181;53.440;5.644;2022-12-07T02:58:54;5.50;99.90
53294;DHT22;39181;53.440;5.644;2022-12-07T03:01:34;5.50;99.90
53294;DHT22;39181;53.440;5.644;2022-12-07T03:06:56;5.50;99.90
53294;DHT22;39181;53.440;5.644;2022-12-07T03:09:44;5.50;99.90
53294;DHT22;39181;53.440;5.644;2022-12-07T03:12:28;5.50;99.90
53294;DHT22;39181;53.440;5.644;2022-12-07T03:15:01;5.50;99.90
53294;DHT22;39181;53.440;5.644;2022-12-07T03:17:32;5.50;99.90
53294;DHT22;39181;53.440;5.644;2022-12-07T03:20:03;5.50;99.90
53294;DHT22;39181;53.440;5.644;2022-12-07T03:22:31;5.40;99.90
53294;DHT22;39181;53.440;5.644;2022-12-07T03:25:04;5.40;99.90
53294;DHT22;39181;53.440;5.644;2022-12-07T03:27:38;5.40;99.90
53294;DHT22;39181;53.440;5.644;2022-12-07T03:30:10;5.30;99.90
53294;DHT22;39181;53.440;5.644;2022-12-07T03:32:45;5.30;99.90
53294;DHT22;39181;53.440;5.644;2022-12-07T03:35:14;5.30;99.90
53294;DHT22;39181;53.440;5.644;2022-12-07T03:37:54;5.20;99.90
53294;DHT22;39181;53.440;5.644;2022-12-07T03:40:54;5.80;99.90
53294;DHT22;39181;53.440;5.644;2022-12-07T03:43:12;5.10;99.90
53294;DHT22;39181;53.440;5.644;2022-12-07T03:45:43;5.10;99.90
53294;DHT22;39181;53.440;5.644;2022-12-07T03:51:04;5.10;99.90
53294;DHT22;39181;53.440;5.644;2022-12-07T03:56:30;5.30;99.90
53294;DHT22;39181;53.440;5.644;2022-12-07T03:58:56;5.30;99.90
53294;DHT22;39181;53.440;5.644;2022-12-07T04:01:23;5.20;99.90
53294;DHT22;39181;53.440;5.644;2022-12-07T04:03:48;5.20;99.90
53294;DHT22;39181;53.440;5.644;2022-12-07T04:06:14;5.10;99.90
53294;DHT22;39181;53.440;5.644;2022-12-07T04:08:40;5.10;99.90
53294;DHT22;39181;53.440;5.644;2022-12-07T04:11:05;5.10;99.90
53294;DHT22;39181;53.440;5.644;2022-12-07T04:13:31;5.20;99.90
53294;DHT22;39181;53.440;5.644;2022-12-07T04:16:16;5.20;99.90
53294;DHT22;39181;53.440;5.644;2022-12-07T04:18:42;5.20;99.90
53294;DHT22;39181;53.440;5.644;2022-12-07T04:21:07;5.10;99.90
53294;DHT22;39181;53.440;5.644;2022-12-07T04:23:33;5.10;99.90
53294;DHT22;39181;53.440;5.644;2022-12-07T04:25:58;5.00;99.90
53294;DHT22;39181;53.440;5.644;2022-12-07T04:28:24;5.00;99.90
53294;DHT22;39181;53.440;5.644;2022-12-07T04:30:49;5.10;99.90
53294;DHT22;39181;53.440;5.644;2022-12-07T04:33:15;5.10;99.90
53294;DHT22;39181;53.440;5.644;2022-12-07T04:35:42;5.20;99.90
53294;DHT22;39181;53.440;5.644;2022-12-07T04:38:08;5.30;99.90
53294;DHT22;39181;53.440;5.644;2022-12-07T04:40:34;5.40;99.90
53294;DHT22;39181;53.440;5.644;2022-12-07T04:42:59;5.40;99.90
53294;DHT22;39181;53.440;5.644;2022-12-07T04:45:25;5.40;99.90
53294;DHT22;39181;53.440;5.644;2022-12-07T04:47:50;5.40;99.90
53294;DHT22;39181;53.440;5.644;2022-12-07T04:50:16;5.40;99.90
53294;DHT22;39181;53.440;5.644;2022-12-07T04:52:41;5.40;99.90
53294;DHT22;39181;53.440;5.644;2022-12-07T04:55:07;5.40;99.90
53294;DHT22;39181;53.440;5.644;2022-12-07T04:57:33;5.30;99.90
53294;DHT22;39181;53.440;5.644;2022-12-07T04:59:58;5.20;99.90
53294;DHT22;39181;53.440;5.644;2022-12-07T05:02:24;5.10;99.90
53294;DHT22;39181;53.440;5.644;2022-12-07T05:04:49;5.10;99.90
53294;DHT22;39181;53.440;5.644;2022-12-07T05:07:15;5.00;99.90
53294;DHT22;39181;53.440;5.644;2022-12-07T05:09:41;5.10;99.90
53294;DHT22;39181;53.440;5.644;2022-12-07T05:12:06;5.10;99.90
53294;DHT22;39181;53.440;5.644;2022-12-07T05:14:32;5.20;99.90
53294;DHT22;39181;53.440;5.644;2022-12-07T05:16:57;5.50;99.90
53294;DHT22;39181;53.440;5.644;2022-12-07T05:19:23;5.60;99.90
53294;DHT22;39181;53.440;5.644;2022-12-07T05:21:48;5.70;99.90
53294;DHT22;39181;53.440;5.644;2022-12-07T05:24:15;5.60;99.90
53294;DHT22;39181;53.440;5.644;2022-12-07T05:26:41;5.60;99.90
53294;DHT22;39181;53.440;5.644;2022-12-07T05:29:07;5.60;99.90
53294;DHT22;39181;53.440;5.644;2022-12-07T05:31:32;5.50;99.90
53294;DHT22;39181;53.440;5.644;2022-12-07T05:33:58;5.40;99.90
53294;DHT22;39181;53.440;5.644;2022-12-07T05:36:23;5.40;99.90
53294;DHT22;39181;53.440;5.644;2022-12-07T05:38:49;5.30;99.90
53294;DHT22;39181;53.440;5.644;2022-12-07T05:41:17;5.30;99.90
53294;DHT22;39181;53.440;5.644;2022-12-07T05:44:01;5.30;99.90
53294;DHT22;39181;53.440;5.644;2022-12-07T05:46:27;5.30;99.90
53294;DHT22;39181;53.440;5.644;2022-12-07T05:48:52;5.20;99.90
53294;DHT22;39181;53.440;5.644;2022-12-07T05:51:18;5.20;99.90
53294;DHT22;39181;53.440;5.644;2022-12-07T05:53:44;5.20;99.90
53294;DHT22;39181;53.440;5.644;2022-12-07T05:56:09;5.40;99.90
53294;DHT22;39181;53.440;5.644;2022-12-07T05:58:35;5.40;99.90
53294;DHT22;39181;53.440;5.644;2022-12-07T06:01:19;5.50;99.90
53294;DHT22;39181;53.440;5.644;2022-12-07T06:03:45;5.50;99.90
53294;DHT22;39181;53.440;5.644;2022-12-07T06:06:11;5.50;99.90
53294;DHT22;39181;53.440;5.644;2022-12-07T06:08:36;5.50;99.90
53294;DHT22;39181;53.440;5.644;2022-12-07T06:11:02;5.60;99.90
53294;DHT22;39181;53.440;5.644;2022-12-07T06:13:46;5.60;99.90
53294;DHT22;39181;53.440;5.644;2022-12-07T06:16:12;5.10;99.90
53294;DHT22;39181;53.440;5.644;2022-12-07T06:18:37;5.00;99.90
53294;DHT22;39181;53.440;5.644;2022-12-07T06:21:03;4.90;99.90
53294;DHT22;39181;53.440;5.644;2022-12-07T06:23:28;4.80;99.90
53294;DHT22;39181;53.440;5.644;2022-12-07T06:25:54;4.70;99.90
53294;DHT22;39181;53.440;5.644;2022-12-07T06:28:19;4.70;99.90
53294;DHT22;39181;53.440;5.644;2022-12-07T06:30:45;4.70;99.90
53294;DHT22;39181;53.440;5.644;2022-12-07T06:33:10;4.70;99.90
53294;DHT22;39181;53.440;5.644;2022-12-07T06:35:36;4.70;99.90
53294;DHT22;39181;53.440;5.644;2022-12-07T06:38:02;4.70;99.90
53294;DHT22;39181;53.440;5.644;2022-12-07T06:40:27;4.70;99.90
53294;DHT22;39181;53.440;5.644;2022-12-07T06:42:53;4.70;99.90
53294;DHT22;39181;53.440;5.644;2022-12-07T06:45:19;4.70;99.90
53294;DHT22;39181;53.440;5.644;2022-12-07T06:47:44;4.80;99.90
53294;DHT22;39181;53.440;5.644;2022-12-07T06:50:10;4.90;99.90
53294;DHT22;39181;53.440;5.644;2022-12-07T06:52:35;4.90;99.90
53294;DHT22;39181;53.440;5.644;2022-12-07T06:55:01;4.90;99.90
53294;DHT22;39181;53.440;5.644;2022-12-07T06:57:26;5.00;99.90
53294;DHT22;39181;53.440;5.644;2022-12-07T06:59:52;5.00;99.90
53294;DHT22;39181;53.440;5.644;2022-12-07T07:02:17;5.10;99.90
53294;DHT22;39181;53.440;5.644;2022-12-07T07:04:43;5.20;99.90
53294;DHT22;39181;53.440;5.644;2022-12-07T07:07:09;5.10;99.90
53294;DHT22;39181;53.440;5.644;2022-12-07T07:09:34;5.00;99.90
53294;DHT22;39181;53.440;5.644;2022-12-07T07:12:00;4.90;99.90
53294;DHT22;39181;53.440;5.644;2022-12-07T07:14:25;4.90;99.90
53294;DHT22;39181;53.440;5.644;2022-12-07T07:16:51;4.80;99.90
53294;DHT22;39181;53.440;5.644;2022-12-07T07:19:17;4.70;99.90
53294;DHT22;39181;53.440;5.644;2022-12-07T07:21:43;4.60;99.90
53294;DHT22;39181;53.440;5.644;2022-12-07T07:24:08;4.50;99.90
53294;DHT22;39181;53.440;5.644;2022-12-07T07:26:34;4.40;99.90
53294;DHT22;39181;53.440;5.644;2022-12-07T07:28:59;4.50;99.90
53294;DHT22;39181;53.440;5.644;2022-12-07T07:31:25;4.40;99.90
53294;DHT22;39181;53.440;5.644;2022-12-07T07:33:50;4.50;99.90
53294;DHT22;39181;53.440;5.644;2022-12-07T07:36:16;4.50;99.90
53294;DHT22;39181;53.440;5.644;2022-12-07T07:38:41;4.60;99.90
53294;DHT22;39181;53.440;5.644;2022-12-07T07:41:07;4.60;99.90
53294;DHT22;39181;53.440;5.644;2022-12-07T07:43:33;4.80;99.90
53294;DHT22;39181;53.440;5.644;2022-12-07T07:45:58;5.00;99.90
53294;DHT22;39181;53.440;5.644;2022-12-07T07:48:24;5.00;99.90
53294;DHT22;39181;53.440;5.644;2022-12-07T07:50:51;5.00;99.90
53294;DHT22;39181;53.440;5.644;2022-12-07T07:53:16;4.90;99.90
53294;DHT22;39181;53.440;5.644;2022-12-07T07:55:50;4.90;99.90
53294;DHT22;39181;53.440;5.644;2022-12-07T07:58:16;5.00;99.90
53294;DHT22;39181;53.440;5.644;2022-12-07T08:00:41;5.10;99.90
53294;DHT22;39181;53.440;5.644;2022-12-07T08:03:07;5.10;99.90
53294;DHT22;39181;53.440;5.644;2022-12-07T08:05:32;5.20;99.90
53294;DHT22;39181;53.440;5.644;2022-12-07T08:07:58;5.10;99.90
53294;DHT22;39181;53.440;5.644;2022-12-07T08:10:23;5.20;99.90
53294;DHT22;39181;53.440;5.644;2022-12-07T08:12:49;5.10;99.90
53294;DHT22;39181;53.440;5.644;2022-12-07T08:15:33;5.10;99.90
53294;DHT22;39181;53.440;5.644;2022-12-07T08:17:58;5.10;99.90
53294;DHT22;39181;53.440;5.644;2022-12-07T08:20:25;5.10;99.90
53294;DHT22;39181;53.440;5.644;2022-12-07T08:22:50;5.10;99.90
53294;DHT22;39181;53.440;5.644;2022-12-07T08:25:16;5.10;99.90
53294;DHT22;39181;53.440;5.644;2022-12-07T08:27:42;5.10;99.90
53294;DHT22;39181;53.440;5.644;2022-12-07T08:30:08;5.00;99.90
53294;DHT22;39181;53.440;5.644;2022-12-07T08:32:34;5.00;99.90
53294;DHT22;39181;53.440;5.644;2022-12-07T08:34:59;5.00;99.90
53294;DHT22;39181;53.440;5.644;2022-12-07T08:37:25;5.00;99.90
53294;DHT22;39181;53.440;5.644;2022-12-07T08:39:50;5.10;99.90
53294;DHT22;39181;53.440;5.644;2022-12-07T08:42:16;5.10;99.90
53294;DHT22;39181;53.440;5.644;2022-12-07T08:44:41;5.30;99.90
53294;DHT22;39181;53.440;5.644;2022-12-07T08:47:07;5.50;99.90
53294;DHT22;39181;53.440;5.644;2022-12-07T08:49:43;5.50;99.90
53294;DHT22;39181;53.440;5.644;2022-12-07T08:52:11;5.50;99.90
53294;DHT22;39181;53.440;5.644;2022-12-07T08:54:38;5.50;99.90
53294;DHT22;39181;53.440;5.644;2022-12-07T08:57:05;5.50;99.90
53294;DHT22;39181;53.440;5.644;2022-12-07T08:59:33;5.50;99.90
53294;DHT22;39181;53.440;5.644;2022-12-07T09:01:59;5.50;99.90
53294;DHT22;39181;53.440;5.644;2022-12-07T09:04:25;5.40;99.90
53294;DHT22;39181;53.440;5.644;2022-12-07T09:06:51;5.30;99.90
53294;DHT22;39181;53.440;5.644;2022-12-07T09:09:17;5.30;99.90
53294;DHT22;39181;53.440;5.644;2022-12-07T09:11:42;5.30;99.90
53294;DHT22;39181;53.440;5.644;2022-12-07T09:14:10;5.30;99.90
53294;DHT22;39181;53.440;5.644;2022-12-07T09:16:36;5.30;99.90
53294;DHT22;39181;53.440;5.644;2022-12-07T09:19:02;5.20;99.90
53294;DHT22;39181;53.440;5.644;2022-12-07T09:21:28;5.30;99.90
53294;DHT22;39181;53.440;5.644;2022-12-07T09:23:53;5.30;99.90
53294;DHT22;39181;53.440;5.644;2022-12-07T09:26:19;5.30;99.90
53294;DHT22;39181;53.440;5.644;2022-12-07T09:28:44;5.40;99.90
53294;DHT22;39181;53.440;5.644;2022-12-07T09:31:10;5.40;99.90
53294;DHT22;39181;53.440;5.644;2022-12-07T09:33:36;5.50;99.90
53294;DHT22;39181;53.440;5.644;2022-12-07T09:36:02;5.60;99.90
53294;DHT22;39181;53.440;5.644;2022-12-07T09:38:28;5.80;99.90
53294;DHT22;39181;53.440;5.644;2022-12-07T09:40:55;6.00;99.90
53294;DHT22;39181;53.440;5.644;2022-12-07T09:43:25;6.10;99.90
53294;DHT22;39181;53.440;5.644;2022-12-07T09:45:53;6.00;99.90
53294;DHT22;39181;53.440;5.644;2022-12-07T09:48:27;5.90;99.90
53294;DHT22;39181;53.440;5.644;2022-12-07T09:50:54;5.60;99.90
53294;DHT22;39181;53.440;5.644;2022-12-07T09:53:33;5.50;99.90
53294;DHT22;39181;53.440;5.644;2022-12-07T09:55:59;5.40;99.90
53294;DHT22;39181;53.440;5.644;2022-12-07T09:58:27;5.50;99.90
53294;DHT22;39181;53.440;5.644;2022-12-07T10:00:57;5.60;99.90
53294;DHT22;39181;53.440;5.644;2022-12-07T10:03:25;5.30;99.90
53294;DHT22;39181;53.440;5.644;2022-12-07T10:05:51;5.40;99.90
53294;DHT22;39181;53.440;5.644;2022-12-07T10:08:18;5.40;99.90
53294;DHT22;39181;53.440;5.644;2022-12-07T10:10:45;5.50;99.90
53294;DHT22;39181;53.440;5.644;2022-12-07T10:13:12;5.60;99.90
53294;DHT22;39181;53.440;5.644;2022-12-07T10:18:36;5.90;99.90
53294;DHT22;39181;53.440;5.644;2022-12-07T10:21:14;6.00;99.90
53294;DHT22;39181;53.440;5.644;2022-12-07T10:23:59;6.00;99.90
53294;DHT22;39181;53.440;5.644;2022-12-07T10:26:36;6.10;99.90
53294;DHT22;39181;53.440;5.644;2022-12-07T10:31:41;6.40;99.90
53294;DHT22;39181;53.440;5.644;2022-12-07T10:34:24;6.40;99.90
53294;DHT22;39181;53.440;5.644;2022-12-07T10:36:51;6.50;99.90
53294;DHT22;39181;53.440;5.644;2022-12-07T10:39:22;6.70;99.90
53294;DHT22;39181;53.440;5.644;2022-12-07T10:42:01;6.70;99.90
53294;DHT22;39181;53.440;5.644;2022-12-07T10:44:32;6.70;99.90
53294;DHT22;39181;53.440;5.644;2022-12-07T10:47:44;6.70;99.90
53294;DHT22;39181;53.440;5.644;2022-12-07T10:50:17;6.70;99.90
53294;DHT22;39181;53.440;5.644;2022-12-07T10:53:03;6.60;99.90
53294;DHT22;39181;53.440;5.644;2022-12-07T10:56:09;6.50;99.90
53294;DHT22;39181;53.440;5.644;2022-12-07T10:59:17;6.50;99.90
53294;DHT22;39181;53.440;5.644;2022-12-07T11:05:02;6.00;99.90
53294;DHT22;39181;53.440;5.644;2022-12-07T11:16:08;6.00;99.90
53294;DHT22;39181;53.440;5.644;2022-12-07T11:24:26;5.90;99.90
53294;DHT22;39181;53.440;5.644;2022-12-07T11:32:49;5.80;99.90
53294;DHT22;39181;53.440;5.644;2022-12-07T11:36:17;5.80;99.90
53294;DHT22;39181;53.440;5.644;2022-12-07T11:38:42;5.90;99.90
53294;DHT22;39181;53.440;5.644;2022-12-07T11:41:09;6.00;99.90
53294;DHT22;39181;53.440;5.644;2022-12-07T11:44:04;6.10;99.90
53294;DHT22;39181;53.440;5.644;2022-12-07T11:46:54;6.00;99.90
53294;DHT22;39181;53.440;5.644;2022-12-07T11:52:35;5.70;99.90
53294;DHT22;39181;53.440;5.644;2022-12-07T11:55:06;5.70;99.90
53294;DHT22;39181;53.440;5.644;2022-12-07T11:57:44;5.50;99.90
53294;DHT22;39181;53.440;5.644;2022-12-07T12:00:18;5.50;99.90
53294;DHT22;39181;53.440;5.644;2022-12-07T12:03:09;5.50;99.90
53294;DHT22;39181;53.440;5.644;2022-12-07T12:05:36;5.50;99.90
53294;DHT22;39181;53.440;5.644;2022-12-07T12:08:14;5.50;99.90
53294;DHT22;39181;53.440;5.644;2022-12-07T12:11:14;5.60;99.90
53294;DHT22;39181;53.440;5.644;2022-12-07T12:21:55;5.80;99.90
53294;DHT22;39181;53.440;5.644;2022-12-07T12:24:27;5.80;99.90
53294;DHT22;39181;53.440;5.644;2022-12-07T12:27:18;5.90;99.90
53294;DHT22;39181;53.440;5.644;2022-12-07T12:29:53;5.90;99.90
53294;DHT22;39181;53.440;5.644;2022-12-07T12:32:21;5.80;99.90
53294;DHT22;39181;53.440;5.644;2022-12-07T12:37:40;5.90;99.90
53294;DHT22;39181;53.440;5.644;2022-12-07T12:42:45;6.00;99.90
53294;DHT22;39181;53.440;5.644;2022-12-07T12:48:02;6.00;99.90
53294;DHT22;39181;53.440;5.644;2022-12-07T12:53:23;6.00;99.90
53294;DHT22;39181;53.440;5.644;2022-12-07T12:58:39;6.00;99.90
53294;DHT22;39181;53.440;5.644;2022-12-07T13:01:33;6.00;99.90
53294;DHT22;39181;53.440;5.644;2022-12-07T13:04:03;5.90;99.90
53294;DHT22;39181;53.440;5.644;2022-12-07T13:06:39;5.70;99.90
53294;DHT22;39181;53.440;5.644;2022-12-07T13:09:21;5.70;99.90
53294;DHT22;39181;53.440;5.644;2022-12-07T13:11:49;5.70;99.90
53294;DHT22;39181;53.440;5.644;2022-12-07T13:14:57;5.60;99.90
53294;DHT22;39181;53.440;5.644;2022-12-07T13:20:07;5.60;99.90
53294;DHT22;39181;53.440;5.644;2022-12-07T13:28:15;5.50;99.90
53294;DHT22;39181;53.440;5.644;2022-12-07T13:30:58;5.50;99.90
53294;DHT22;39181;53.440;5.644;2022-12-07T13:33:28;5.50;99.90
53294;DHT22;39181;53.440;5.644;2022-12-07T13:35:54;5.50;99.90
53294;DHT22;39181;53.440;5.644;2022-12-07T13:38:30;5.50;99.90
53294;DHT22;39181;53.440;5.644;2022-12-07T13:41:11;5.60;99.90
53294;DHT22;39181;53.440;5.644;2022-12-07T13:46:44;5.60;99.90
53294;DHT22;39181;53.440;5.644;2022-12-07T13:49:30;5.60;99.90
53294;DHT22;39181;53.440;5.644;2022-12-07T13:54:45;5.50;99.90
53294;DHT22;39181;53.440;5.644;2022-12-07T13:57:11;5.50;99.90
53294;DHT22;39181;53.440;5.644;2022-12-07T13:59:37;5.40;99.90
53294;DHT22;39181;53.440;5.644;2022-12-07T14:02:21;5.40;99.90
53294;DHT22;39181;53.440;5.644;2022-12-07T14:04:50;5.40;99.90
53294;DHT22;39181;53.440;5.644;2022-12-07T14:07:21;5.40;99.90
53294;DHT22;39181;53.440;5.644;2022-12-07T14:10:02;5.50;99.90
53294;DHT22;39181;53.440;5.644;2022-12-07T14:12:29;5.40;99.90
53294;DHT22;39181;53.440;5.644;2022-12-07T14:14:56;5.40;99.90
53294;DHT22;39181;53.440;5.644;2022-12-07T14:17:23;5.50;99.90
53294;DHT22;39181;53.440;5.644;2022-12-07T14:19:50;5.60;99.90
53294;DHT22;39181;53.440;5.644;2022-12-07T14:22:32;5.50;99.90
53294;DHT22;39181;53.440;5.644;2022-12-07T14:27:33;5.30;99.90
53294;DHT22;39181;53.440;5.644;2022-12-07T14:30:00;5.30;99.90
53294;DHT22;39181;53.440;5.644;2022-12-07T14:32:28;5.20;99.90
53294;DHT22;39181;53.440;5.644;2022-12-07T14:35:09;5.10;99.90
53294;DHT22;39181;53.440;5.644;2022-12-07T14:37:35;4.90;99.90
53294;DHT22;39181;53.440;5.644;2022-12-07T14:40:01;4.80;99.90
53294;DHT22;39181;53.440;5.644;2022-12-07T14:42:29;4.70;99.90
53294;DHT22;39181;53.440;5.644;2022-12-07T14:44:56;4.60;99.90
53294;DHT22;39181;53.440;5.644;2022-12-07T14:47:22;4.60;99.90
53294;DHT22;39181;53.440;5.644;2022-12-07T14:49:48;4.60;99.90
53294;DHT22;39181;53.440;5.644;2022-12-07T14:52:17;4.60;99.90
53294;DHT22;39181;53.440;5.644;2022-12-07T14:54:44;4.70;99.90
53294;DHT22;39181;53.440;5.644;2022-12-07T14:57:10;4.70;99.90
53294;DHT22;39181;53.440;5.644;2022-12-07T14:59:36;4.70;99.90
53294;DHT22;39181;53.440;5.644;2022-12-07T15:02:02;4.80;99.90
53294;DHT22;39181;53.440;5.644;2022-12-07T15:04:27;4.80;99.90
53294;DHT22;39181;53.440;5.644;2022-12-07T15:07:02;4.80;99.90
53294;DHT22;39181;53.440;5.644;2022-12-07T15:09:28;4.80;99.90
53294;DHT22;39181;53.440;5.644;2022-12-07T15:11:54;4.80;99.90
53294;DHT22;39181;53.440;5.644;2022-12-07T15:14:20;4.70;99.90
53294;DHT22;39181;53.440;5.644;2022-12-07T15:16:45;4.60;99.90
53294;DHT22;39181;53.440;5.644;2022-12-07T15:19:20;4.60;99.90
53294;DHT22;39181;53.440;5.644;2022-12-07T15:21:51;4.90;99.90
53294;DHT22;39181;53.440;5.644;2022-12-07T15:24:16;5.00;99.90
53294;DHT22;39181;53.440;5.644;2022-12-07T15:26:42;5.10;99.90
53294;DHT22;39181;53.440;5.644;2022-12-07T15:29:08;5.20;99.90
53294;DHT22;39181;53.440;5.644;2022-12-07T15:31:34;5.30;99.90
53294;DHT22;39181;53.440;5.644;2022-12-07T15:34:00;5.30;99.90
53294;DHT22;39181;53.440;5.644;2022-12-07T15:36:28;5.20;99.90
53294;DHT22;39181;53.440;5.644;2022-12-07T15:38:54;5.20;99.90
53294;DHT22;39181;53.440;5.644;2022-12-07T15:41:20;5.00;99.90
53294;DHT22;39181;53.440;5.644;2022-12-07T15:43:46;5.00;99.90
53294;DHT22;39181;53.440;5.644;2022-12-07T15:46:40;4.80;99.90
53294;DHT22;39181;53.440;5.644;2022-12-07T15:49:11;4.70;99.90
53294;DHT22;39181;53.440;5.644;2022-12-07T15:51:37;4.60;99.90
53294;DHT22;39181;53.440;5.644;2022-12-07T15:54:03;4.60;99.90
53294;DHT22;39181;53.440;5.644;2022-12-07T15:56:28;4.50;99.90
53294;DHT22;39181;53.440;5.644;2022-12-07T15:58:56;4.50;99.90
53294;DHT22;39181;53.440;5.644;2022-12-07T16:01:22;4.50;99.90
53294;DHT22;39181;53.440;5.644;2022-12-07T16:03:47;4.50;99.90
53294;DHT22;39181;53.440;5.644;2022-12-07T16:06:16;4.70;99.90
53294;DHT22;39181;53.440;5.644;2022-12-07T16:08:46;4.70;99.90
53294;DHT22;39181;53.440;5.644;2022-12-07T16:11:12;4.90;99.90
53294;DHT22;39181;53.440;5.644;2022-12-07T16:13:38;5.00;99.90
53294;DHT22;39181;53.440;5.644;2022-12-07T16:16:07;5.00;99.90
53294;DHT22;39181;53.440;5.644;2022-12-07T16:18:32;5.10;99.90
53294;DHT22;39181;53.440;5.644;2022-12-07T16:20:58;5.10;99.90
53294;DHT22;39181;53.440;5.644;2022-12-07T16:23:24;5.00;99.90
53294;DHT22;39181;53.440;5.644;2022-12-07T16:25:49;4.80;99.90
53294;DHT22;39181;53.440;5.644;2022-12-07T16:28:15;4.80;99.90
53294;DHT22;39181;53.440;5.644;2022-12-07T16:30:40;4.70;99.90
53294;DHT22;39181;53.440;5.644;2022-12-07T16:33:06;4.60;99.90
53294;DHT22;39181;53.440;5.644;2022-12-07T16:35:31;4.50;99.90
53294;DHT22;39181;53.440;5.644;2022-12-07T16:37:57;4.50;99.90
53294;DHT22;39181;53.440;5.644;2022-12-07T16:40:23;4.40;99.90
53294;DHT22;39181;53.440;5.644;2022-12-07T16:42:48;4.50;99.90
53294;DHT22;39181;53.440;5.644;2022-12-07T16:45:14;4.40;99.90
53294;DHT22;39181;53.440;5.644;2022-12-07T16:47:40;4.40;99.90
53294;DHT22;39181;53.440;5.644;2022-12-07T16:50:06;4.30;99.90
53294;DHT22;39181;53.440;5.644;2022-12-07T16:52:33;4.30;99.90
53294;DHT22;39181;53.440;5.644;2022-12-07T16:54:59;4.30;99.90
53294;DHT22;39181;53.440;5.644;2022-12-07T16:57:24;4.40;99.90
53294;DHT22;39181;53.440;5.644;2022-12-07T16:59:51;4.30;99.90
53294;DHT22;39181;53.440;5.644;2022-12-07T17:02:17;4.20;99.90
53294;DHT22;39181;53.440;5.644;2022-12-07T17:04:43;4.10;99.90
53294;DHT22;39181;53.440;5.644;2022-12-07T17:07:09;4.00;99.90
53294;DHT22;39181;53.440;5.644;2022-12-07T17:09:35;3.90;99.90
53294;DHT22;39181;53.440;5.644;2022-12-07T17:12:01;3.80;99.90
53294;DHT22;39181;53.440;5.644;2022-12-07T17:14:27;3.80;99.90
53294;DHT22;39181;53.440;5.644;2022-12-07T17:17:11;3.70;99.90
53294;DHT22;39181;53.440;5.644;2022-12-07T17:19:36;3.60;99.90
53294;DHT22;39181;53.440;5.644;2022-12-07T17:22:02;3.60;99.90
53294;DHT22;39181;53.440;5.644;2022-12-07T17:24:28;3.60;99.90
53294;DHT22;39181;53.440;5.644;2022-12-07T17:26:53;3.50;99.90
53294;DHT22;39181;53.440;5.644;2022-12-07T17:29:19;3.60;99.90
53294;DHT22;39181;53.440;5.644;2022-12-07T17:31:46;3.70;99.90